Time;durP1;ratioP1;P1;durP2;ratioP2;P2;SDS_P1;SDS_P2;PMS_P1;PMS_P2;Temp;Humidity;BMP_temperature;BMP_pressure;BME280_temperature;BME280_humidity;BME280_pressure;Samples;Min_cycle;Max_cycle;Signal;HPM_P1;HPM_P2
2021/07/15 00:01:42;;;;;;;0.10;0.00;;;14.50;99.90;;;;;;5016146;28;20175;-76
2021/07/15 00:04:09;;;;;;;0.40;0.10;;;14.40;99.90;;;;;;5016711;28;20600;-76
2021/07/15 00:06:35;;;;;;;0.10;0.10;;;14.40;99.90;;;;;;5016236;28;20193;-75
2021/07/15 00:09:01;;;;;;;0.10;0.00;;;14.40;99.90;;;;;;4998428;28;20179;-76
2021/07/15 00:11:28;;;;;;;0.20;0.10;;;14.50;99.90;;;;;;4998462;28;20186;-76
2021/07/15 00:13:55;;;;;;;0.10;0.10;;;14.40;99.90;;;;;;5016147;28;20198;-76
2021/07/15 00:16:22;;;;;;;0.50;0.10;;;14.40;99.90;;;;;;5016104;28;20178;-76
2021/07/15 00:18:49;;;;;;;0.17;0.10;;;14.30;99.90;;;;;;4998260;28;20178;-76
2021/07/15 00:21:18;;;;;;;0.40;0.10;;;14.30;99.90;;;;;;4998276;28;20175;-76
2021/07/15 00:23:44;;;;;;;0.10;0.10;;;14.30;99.90;;;;;;4997980;28;20219;-76
2021/07/15 00:26:10;;;;;;;0.10;0.00;;;14.30;99.90;;;;;;4998172;28;20175;-76
2021/07/15 00:28:37;;;;;;;3.30;0.10;;;14.30;99.90;;;;;;4998664;28;20269;-76
2021/07/15 00:31:04;;;;;;;0.10;0.10;;;14.30;99.90;;;;;;5015605;28;20535;-76
2021/07/15 00:33:30;;;;;;;0.37;0.10;;;14.30;99.90;;;;;;5015541;28;20203;-76
2021/07/15 00:35:57;;;;;;;0.43;0.20;;;14.40;99.90;;;;;;4997974;28;20203;-75
2021/07/15 00:38:23;;;;;;;0.30;0.10;;;14.20;99.90;;;;;;5015603;28;20182;-76
2021/07/15 00:40:49;;;;;;;2.77;0.30;;;14.20;99.90;;;;;;5015755;28;20190;-76
2021/07/15 00:43:14;;;;;;;2.60;0.67;;;14.20;99.90;;;;;;5014275;28;20184;-76
2021/07/15 00:45:40;;;;;;;2.63;0.53;;;14.20;99.90;;;;;;5015580;28;20186;-76
2021/07/15 00:48:06;;;;;;;0.60;0.30;;;14.20;99.90;;;;;;5014882;28;20182;-76
2021/07/15 00:50:32;;;;;;;0.37;0.20;;;14.10;99.90;;;;;;5015295;28;20695;-76
2021/07/15 00:52:58;;;;;;;1.20;0.20;;;14.10;99.90;;;;;;4997582;28;20542;-76
2021/07/15 00:55:32;;;;;;;0.70;0.13;;;14.20;99.90;;;;;;5013612;28;20191;-76
2021/07/15 00:57:58;;;;;;;0.00;0.00;;;14.20;99.90;;;;;;5012994;28;20184;-76
2021/07/15 01:00:25;;;;;;;0.20;0.10;;;14.20;99.90;;;;;;5012611;28;20179;-76
2021/07/15 01:02:53;;;;;;;0.10;0.10;;;14.20;99.90;;;;;;5012828;28;20335;-76
2021/07/15 01:05:25;;;;;;;0.10;0.10;;;14.10;99.90;;;;;;5012168;28;21025;-77
2021/07/15 01:07:51;;;;;;;0.10;0.10;;;14.00;99.90;;;;;;5012823;28;20221;-76
2021/07/15 01:10:20;;;;;;;0.00;0.00;;;14.10;99.90;;;;;;4994503;28;20204;-76
2021/07/15 01:13:01;;;;;;;0.50;0.10;;;14.10;99.90;;;;;;5009630;28;20225;-76
2021/07/15 01:15:57;;;;;;;1.50;0.10;;;14.10;99.90;;;;;;5012110;28;20298;-76
2021/07/15 01:18:48;;;;;;;0.20;0.20;;;14.10;99.90;;;;;;4972338;28;20668;-76
2021/07/15 01:21:39;;;;;;;1.50;0.10;;;14.10;99.90;;;;;;5012396;28;20271;-76
2021/07/15 01:24:38;;;;;;;0.30;0.30;;;14.10;99.90;;;;;;5013256;28;20213;-76
2021/07/15 01:27:37;;;;;;;1.73;0.20;;;14.10;99.90;;;;;;4994916;28;20182;-76
2021/07/15 01:30:10;;;;;;;0.33;0.27;;;14.10;99.90;;;;;;5009287;28;20198;-76
2021/07/15 01:33:00;;;;;;;0.40;0.37;;;14.20;99.90;;;;;;4994701;28;20664;-76
2021/07/15 01:35:48;;;;;;;1.10;0.30;;;14.10;99.90;;;;;;4994110;28;20294;-76
2021/07/15 01:38:17;;;;;;;0.40;0.20;;;14.10;99.90;;;;;;5011010;28;20194;-76
2021/07/15 01:40:54;;;;;;;0.50;0.20;;;14.00;99.90;;;;;;5013351;28;20182;-76
2021/07/15 01:43:29;;;;;;;0.80;0.20;;;14.10;99.90;;;;;;5012992;28;20277;-77
2021/07/15 01:45:55;;;;;;;0.10;0.10;;;14.10;99.90;;;;;;4996161;28;20177;-75
2021/07/15 01:48:21;;;;;;;0.77;0.30;;;14.10;99.90;;;;;;5013483;28;20597;-76
2021/07/15 01:50:47;;;;;;;0.87;0.40;;;14.20;99.90;;;;;;4995345;28;20199;-77
2021/07/15 01:53:13;;;;;;;0.30;0.20;;;14.20;99.90;;;;;;5011625;28;20648;-76
2021/07/15 01:55:40;;;;;;;0.10;0.10;;;14.20;99.90;;;;;;5012060;28;20178;-76
2021/07/15 01:58:07;;;;;;;1.10;0.67;;;14.30;99.90;;;;;;5011928;28;20194;-76
2021/07/15 02:00:34;;;;;;;0.60;0.30;;;14.20;99.90;;;;;;5011921;28;20186;-75
2021/07/15 02:03:03;;;;;;;0.47;0.20;;;14.20;99.90;;;;;;5013335;28;20182;-76
2021/07/15 02:05:29;;;;;;;1.50;0.40;;;14.20;99.90;;;;;;4994931;28;20207;-76
2021/07/15 02:07:55;;;;;;;2.43;0.43;;;14.10;99.90;;;;;;5008755;28;20183;-77
2021/07/15 02:10:24;;;;;;;0.33;0.30;;;14.10;99.90;;;;;;5009942;28;20195;-76
2021/07/15 02:12:50;;;;;;;0.30;0.27;;;14.20;99.90;;;;;;5009782;28;20188;-76
2021/07/15 02:15:16;;;;;;;0.20;0.20;;;14.10;99.90;;;;;;5010813;28;20203;-76
2021/07/15 02:17:45;;;;;;;0.37;0.20;;;14.10;99.90;;;;;;4994153;28;20521;-76
2021/07/15 02:20:16;;;;;;;1.93;0.43;;;14.10;99.90;;;;;;5011088;28;20232;-77
2021/07/15 02:22:43;;;;;;;0.70;0.30;;;14.00;99.90;;;;;;5010923;28;20676;-77
2021/07/15 02:25:10;;;;;;;0.30;0.20;;;14.10;99.90;;;;;;5011934;28;20294;-76
2021/07/15 02:27:39;;;;;;;0.27;0.20;;;14.10;99.90;;;;;;5012313;28;20196;-76
2021/07/15 02:30:08;;;;;;;0.73;0.43;;;14.10;99.90;;;;;;5076167;22;20734;-81
2021/07/15 02:32:34;;;;;;;0.60;0.30;;;14.00;99.90;;;;;;5030345;28;20564;-80
2021/07/15 02:35:04;;;;;;;0.30;0.20;;;13.90;99.90;;;;;;5030941;28;20201;-79
2021/07/15 02:37:35;;;;;;;0.40;0.30;;;14.00;99.90;;;;;;5046626;28;20546;-79
2021/07/15 02:40:06;;;;;;;2.23;0.57;;;13.90;99.90;;;;;;5022335;28;20197;-79
2021/07/15 02:42:31;;;;;;;1.53;0.60;;;13.80;99.90;;;;;;5044194;28;20177;-79
2021/07/15 02:44:57;;;;;;;1.90;0.50;;;13.90;99.90;;;;;;5028118;28;20665;-79
2021/07/15 02:47:23;;;;;;;0.60;0.50;;;13.90;99.90;;;;;;5038825;28;20188;-79
2021/07/15 02:49:49;;;;;;;1.07;0.50;;;13.90;99.90;;;;;;5030547;28;20211;-79
2021/07/15 02:52:16;;;;;;;0.80;0.40;;;13.80;99.90;;;;;;5031070;28;20190;-79
2021/07/15 02:54:42;;;;;;;0.70;0.47;;;13.80;99.90;;;;;;5029087;28;20661;-80
2021/07/15 02:57:27;;;;;;;1.17;0.33;;;13.80;99.90;;;;;;5012131;28;20170;-79
2021/07/15 02:59:56;;;;;;;1.50;0.30;;;13.80;99.90;;;;;;5028578;28;20208;-81
2021/07/15 03:02:29;;;;;;;0.50;0.30;;;13.80;99.90;;;;;;5005393;28;20198;-78
2021/07/15 03:05:09;;;;;;;1.00;0.40;;;13.90;99.90;;;;;;5009340;28;20199;-80
2021/07/15 03:07:38;;;;;;;0.90;0.30;;;13.90;99.90;;;;;;5013156;28;20235;-78
2021/07/15 03:10:05;;;;;;;0.73;0.43;;;13.90;99.90;;;;;;5033316;28;20203;-80
2021/07/15 03:12:34;;;;;;;0.43;0.30;;;13.90;99.90;;;;;;5031699;28;20166;-79
2021/07/15 03:15:01;;;;;;;0.30;0.30;;;13.80;99.90;;;;;;5015381;28;20174;-79
2021/07/15 03:17:37;;;;;;;0.20;0.20;;;13.80;99.90;;;;;;5014857;28;20199;-79
2021/07/15 03:20:12;;;;;;;0.40;0.20;;;13.80;99.90;;;;;;5014344;28;20221;-80
2021/07/15 03:22:40;;;;;;;0.87;0.20;;;13.80;99.90;;;;;;5032270;28;20180;-79
2021/07/15 03:25:13;;;;;;;0.70;0.50;;;13.30;99.90;;;;;;5032151;28;20669;-79
2021/07/15 03:27:47;;;;;;;1.03;0.50;;;13.70;99.90;;;;;;5015139;28;20543;-80
2021/07/15 03:30:14;;;;;;;2.50;0.70;;;13.70;99.90;;;;;;5031992;28;20219;-80
2021/07/15 03:32:42;;;;;;;0.93;0.50;;;13.70;99.90;;;;;;5014802;28;20179;-79
2021/07/15 03:35:09;;;;;;;0.50;0.30;;;13.70;99.90;;;;;;5034781;28;20228;-78
2021/07/15 03:37:40;;;;;;;1.77;1.07;;;13.70;99.90;;;;;;5033362;28;20228;-80
2021/07/15 03:40:06;;;;;;;0.73;0.60;;;13.70;99.90;;;;;;5012843;28;20293;-80
2021/07/15 03:42:34;;;;;;;0.60;0.57;;;13.70;99.90;;;;;;5013466;28;20182;-79
2021/07/15 03:45:00;;;;;;;0.43;0.30;;;13.80;99.90;;;;;;5031918;28;20187;-79
2021/07/15 03:47:28;;;;;;;0.83;0.70;;;13.90;99.90;;;;;;5036084;28;20186;-79
2021/07/15 03:49:55;;;;;;;0.73;0.50;;;13.90;99.90;;;;;;5029364;28;20205;-79
2021/07/15 03:52:20;;;;;;;0.80;0.40;;;13.90;99.90;;;;;;5033313;28;20179;-79
2021/07/15 03:54:48;;;;;;;0.57;0.40;;;13.90;99.90;;;;;;5047202;28;20179;-79
2021/07/15 03:57:16;;;;;;;1.53;0.80;;;13.90;99.90;;;;;;5048598;28;20218;-79
2021/07/15 03:59:45;;;;;;;2.73;1.10;;;14.00;99.90;;;;;;5027166;28;20274;-80
2021/07/15 04:02:14;;;;;;;3.40;0.87;;;13.90;99.90;;;;;;5024983;28;20217;-79
2021/07/15 04:04:48;;;;;;;0.30;0.30;;;13.90;99.90;;;;;;5034223;28;20176;-78
2021/07/15 04:07:17;;;;;;;0.60;0.50;;;13.90;99.90;;;;;;5027289;28;20185;-78
2021/07/15 04:09:45;;;;;;;0.60;0.30;;;13.90;99.90;;;;;;5009951;28;20773;-78
2021/07/15 04:12:12;;;;;;;1.03;0.50;;;14.00;99.90;;;;;;5029673;28;20173;-79
2021/07/15 04:14:37;;;;;;;0.40;0.40;;;14.10;99.90;;;;;;5016678;28;20175;-78
2021/07/15 04:17:06;;;;;;;0.40;0.40;;;14.10;99.90;;;;;;5018817;28;20179;-79
2021/07/15 04:19:34;;;;;;;0.40;0.40;;;13.90;99.90;;;;;;5016961;28;20331;-79
2021/07/15 04:22:04;;;;;;;2.07;0.50;;;14.00;99.90;;;;;;5033167;28;20213;-80
2021/07/15 04:24:31;;;;;;;0.93;0.60;;;14.00;99.90;;;;;;5016913;28;20187;-81
2021/07/15 04:27:02;;;;;;;0.73;0.50;;;14.00;99.90;;;;;;5040391;28;20649;-79
2021/07/15 04:29:29;;;;;;;0.73;0.47;;;14.10;99.90;;;;;;5036755;28;20277;-79
2021/07/15 04:32:05;;;;;;;1.10;0.50;;;14.10;99.90;;;;;;5034543;28;20252;-80
2021/07/15 04:34:33;;;;;;;1.47;0.40;;;14.10;99.90;;;;;;5047489;28;20174;-79
2021/07/15 04:36:59;;;;;;;0.90;0.50;;;14.10;99.90;;;;;;5033500;28;20178;-79
2021/07/15 04:39:26;;;;;;;2.73;0.40;;;14.00;99.90;;;;;;5013300;28;20198;-80
2021/07/15 04:41:54;;;;;;;0.30;0.30;;;14.00;99.90;;;;;;5013005;28;20263;-79
2021/07/15 04:44:20;;;;;;;0.60;0.50;;;14.00;99.90;;;;;;5031091;28;20234;-80
2021/07/15 04:46:48;;;;;;;0.70;0.70;;;14.00;99.90;;;;;;5029290;28;20182;-79
2021/07/15 04:49:13;;;;;;;1.30;0.50;;;14.00;99.90;;;;;;5012220;28;20202;-80
2021/07/15 04:51:40;;;;;;;0.40;0.40;;;14.00;99.90;;;;;;5026982;28;20523;-80
2021/07/15 04:54:08;;;;;;;0.30;0.30;;;14.00;99.90;;;;;;5024319;28;20178;-81
2021/07/15 04:56:34;;;;;;;2.13;0.50;;;14.00;99.90;;;;;;5018730;28;20182;-81
2021/07/15 04:59:02;;;;;;;0.40;0.40;;;14.10;99.90;;;;;;5019886;28;20786;-81
2021/07/15 05:01:28;;;;;;;1.47;0.50;;;14.10;99.90;;;;;;5020710;28;20178;-81
2021/07/15 05:03:54;;;;;;;0.40;0.37;;;14.10;99.90;;;;;;5002197;28;20182;-81
2021/07/15 05:06:21;;;;;;;0.60;0.60;;;14.10;99.90;;;;;;5020638;28;20209;-81
2021/07/15 05:08:47;;;;;;;0.50;0.50;;;14.10;99.90;;;;;;5020672;28;20171;-81
2021/07/15 05:11:13;;;;;;;0.63;0.60;;;14.10;99.90;;;;;;5002596;28;20267;-81
2021/07/15 05:13:39;;;;;;;0.40;0.40;;;14.30;99.90;;;;;;5019943;28;20552;-81
2021/07/15 05:16:05;;;;;;;0.40;0.30;;;14.20;99.90;;;;;;5019860;28;20174;-81
2021/07/15 05:18:32;;;;;;;0.70;0.50;;;14.20;99.90;;;;;;5020168;28;20175;-81
2021/07/15 05:20:58;;;;;;;1.87;0.60;;;14.20;99.90;;;;;;5002089;28;20212;-81
2021/07/15 05:23:23;;;;;;;0.30;0.30;;;14.20;99.90;;;;;;5023733;28;20541;-81
2021/07/15 05:25:51;;;;;;;0.63;0.37;;;14.20;99.90;;;;;;5020580;28;20188;-81
2021/07/15 05:28:17;;;;;;;1.00;0.50;;;14.20;99.90;;;;;;5019193;28;20179;-81
2021/07/15 05:30:43;;;;;;;0.77;0.30;;;14.30;99.90;;;;;;5002412;28;20286;-81
2021/07/15 05:33:09;;;;;;;0.30;0.30;;;14.30;99.90;;;;;;5020547;28;20202;-81
2021/07/15 05:35:34;;;;;;;0.50;0.50;;;14.30;99.90;;;;;;5018715;28;20183;-81
2021/07/15 05:38:01;;;;;;;0.60;0.60;;;14.30;99.90;;;;;;5018724;28;20181;-82
2021/07/15 05:40:27;;;;;;;0.60;0.43;;;14.40;99.90;;;;;;5019652;28;20194;-81
2021/07/15 05:42:53;;;;;;;0.50;0.50;;;14.40;99.90;;;;;;5018257;28;20186;-81
2021/07/15 05:45:18;;;;;;;0.80;0.60;;;14.40;99.90;;;;;;5020944;28;20666;-81
2021/07/15 05:47:44;;;;;;;0.33;0.33;;;14.50;99.90;;;;;;5016928;28;20227;-80
2021/07/15 05:50:10;;;;;;;0.43;0.40;;;14.50;99.90;;;;;;5018876;28;20266;-81
2021/07/15 05:52:36;;;;;;;0.30;0.30;;;14.50;99.90;;;;;;5017752;28;20175;-81
2021/07/15 05:55:02;;;;;;;1.03;0.57;;;14.50;99.90;;;;;;5019521;28;20668;-81
2021/07/15 05:57:29;;;;;;;0.60;0.60;;;14.50;99.90;;;;;;5019593;28;20171;-81
2021/07/15 05:59:54;;;;;;;0.40;0.40;;;14.60;99.90;;;;;;5019270;28;20198;-81
2021/07/15 06:02:20;;;;;;;1.33;0.50;;;14.50;99.90;;;;;;5016483;28;20208;-81
2021/07/15 06:04:46;;;;;;;0.40;0.40;;;14.40;99.90;;;;;;4999684;28;20228;-81
2021/07/15 06:07:11;;;;;;;1.93;0.60;;;14.40;99.90;;;;;;5018637;28;20179;-81
2021/07/15 06:09:37;;;;;;;0.40;0.40;;;14.50;99.90;;;;;;5000009;28;20210;-81
2021/07/15 06:12:03;;;;;;;0.37;0.37;;;14.40;99.90;;;;;;5019056;28;20257;-80
2021/07/15 06:14:29;;;;;;;1.27;0.50;;;14.40;99.90;;;;;;5018157;28;20238;-80
2021/07/15 06:16:55;;;;;;;0.87;0.43;;;14.60;99.90;;;;;;5000080;28;20183;-81
2021/07/15 06:19:20;;;;;;;0.50;0.40;;;14.60;99.90;;;;;;5016469;28;20696;-81
2021/07/15 06:21:46;;;;;;;1.50;0.50;;;14.70;99.90;;;;;;5006171;28;20228;-81
2021/07/15 06:24:12;;;;;;;0.40;0.40;;;14.70;99.90;;;;;;5022881;28;20191;-81
2021/07/15 06:26:37;;;;;;;0.20;0.20;;;14.60;99.90;;;;;;5019184;28;20226;-81
2021/07/15 06:29:04;;;;;;;0.40;0.40;;;14.60;99.90;;;;;;5016956;28;20278;-81
2021/07/15 06:31:30;;;;;;;1.03;0.40;;;14.60;99.90;;;;;;5017601;28;20175;-81
2021/07/15 06:33:56;;;;;;;0.40;0.40;;;14.60;99.90;;;;;;5001152;28;20261;-81
2021/07/15 06:36:22;;;;;;;0.43;0.30;;;14.60;99.90;;;;;;5000983;28;20182;-81
2021/07/15 06:38:48;;;;;;;0.77;0.37;;;14.60;99.90;;;;;;5019029;28;20174;-81
2021/07/15 06:41:14;;;;;;;1.40;0.40;;;14.60;99.90;;;;;;5000090;28;20237;-81
2021/07/15 06:43:39;;;;;;;0.30;0.30;;;14.70;99.90;;;;;;5017207;28;20176;-80
2021/07/15 06:46:06;;;;;;;0.70;0.30;;;14.70;99.90;;;;;;5018610;28;20669;-81
2021/07/15 06:48:32;;;;;;;0.30;0.30;;;14.70;99.90;;;;;;5000656;28;20269;-81
2021/07/15 06:50:57;;;;;;;0.93;0.20;;;14.70;99.90;;;;;;5019039;28;20191;-81
2021/07/15 06:53:23;;;;;;;0.37;0.37;;;14.70;99.90;;;;;;5022228;28;20175;-79
2021/07/15 06:55:49;;;;;;;3.93;0.40;;;14.80;99.90;;;;;;5017348;28;20721;-80
2021/07/15 06:58:15;;;;;;;0.47;0.30;;;14.70;99.90;;;;;;5017276;28;20257;-81
2021/07/15 07:00:40;;;;;;;0.27;0.27;;;14.70;99.90;;;;;;5026738;28;20202;-80
2021/07/15 07:03:06;;;;;;;0.27;0.27;;;14.60;99.90;;;;;;5021672;28;20236;-81
2021/07/15 07:05:32;;;;;;;1.03;0.53;;;14.60;99.90;;;;;;5018795;28;20183;-81
2021/07/15 07:07:58;;;;;;;0.27;0.27;;;14.60;99.90;;;;;;5018469;28;20245;-81
2021/07/15 07:10:24;;;;;;;1.60;0.43;;;14.70;99.90;;;;;;5000307;28;20601;-80
2021/07/15 07:12:50;;;;;;;0.23;0.23;;;14.60;99.90;;;;;;5022116;28;20713;-81
2021/07/15 07:15:17;;;;;;;1.23;0.37;;;14.70;99.90;;;;;;5015710;28;20205;-80
2021/07/15 07:17:44;;;;;;;1.17;0.63;;;14.70;99.90;;;;;;5017795;28;20576;-80
2021/07/15 07:20:12;;;;;;;0.50;0.40;;;14.70;99.90;;;;;;4999724;28;20587;-80
2021/07/15 07:22:38;;;;;;;1.60;0.40;;;14.70;99.90;;;;;;5016782;28;20186;-81
2021/07/15 07:25:06;;;;;;;0.33;0.33;;;14.70;99.90;;;;;;5018088;28;20642;-80
2021/07/15 07:27:32;;;;;;;0.37;0.30;;;14.70;99.90;;;;;;4999535;28;20245;-81
2021/07/15 07:29:58;;;;;;;0.53;0.53;;;14.70;99.90;;;;;;5017113;28;20603;-82
2021/07/15 07:32:24;;;;;;;1.03;0.60;;;14.70;99.90;;;;;;5017890;28;20226;-81
2021/07/15 07:34:49;;;;;;;0.97;0.60;;;14.70;99.90;;;;;;5000640;28;20175;-81
2021/07/15 07:37:15;;;;;;;0.50;0.50;;;14.80;99.90;;;;;;5018452;28;20179;-82
2021/07/15 07:39:41;;;;;;;0.60;0.60;;;14.80;99.90;;;;;;5017601;28;20199;-82
2021/07/15 07:42:07;;;;;;;0.70;0.70;;;14.80;99.90;;;;;;5016538;28;20194;-82
2021/07/15 07:44:33;;;;;;;2.00;0.90;;;14.90;99.90;;;;;;5018614;28;20187;-82
2021/07/15 07:46:59;;;;;;;1.50;0.67;;;14.80;99.90;;;;;;5017711;28;20183;-82
2021/07/15 07:49:24;;;;;;;0.87;0.73;;;14.80;99.90;;;;;;5018072;28;20579;-82
2021/07/15 07:51:50;;;;;;;0.30;0.30;;;14.90;99.90;;;;;;5026047;28;20198;-82
2021/07/15 07:54:16;;;;;;;0.60;0.50;;;14.90;99.90;;;;;;5030454;28;20182;-82
2021/07/15 07:56:42;;;;;;;0.60;0.60;;;14.90;99.90;;;;;;5024521;28;20186;-82
2021/07/15 07:59:07;;;;;;;2.43;0.50;;;14.80;99.90;;;;;;5021938;28;20666;-82
2021/07/15 08:01:35;;;;;;;1.23;0.40;;;14.90;99.90;;;;;;5004837;28;20185;-81
2021/07/15 08:04:00;;;;;;;0.67;0.50;;;14.90;99.90;;;;;;5020803;28;20171;-81
2021/07/15 08:06:26;;;;;;;0.73;0.50;;;14.90;99.90;;;;;;5020773;28;20582;-81
2021/07/15 08:08:52;;;;;;;2.33;0.90;;;14.90;99.90;;;;;;5019487;28;20694;-82
2021/07/15 08:11:20;;;;;;;0.60;0.50;;;15.00;99.90;;;;;;5021026;28;20194;-81
2021/07/15 08:13:45;;;;;;;0.80;0.63;;;15.00;99.90;;;;;;5020875;28;20172;-81
2021/07/15 08:16:11;;;;;;;1.10;0.70;;;15.00;99.90;;;;;;5020894;28;20605;-81
2021/07/15 08:18:36;;;;;;;2.03;0.67;;;15.10;99.90;;;;;;5020377;28;20646;-82
2021/07/15 08:21:02;;;;;;;1.00;0.67;;;15.10;99.90;;;;;;5020645;28;20244;-81
2021/07/15 08:23:28;;;;;;;2.97;0.60;;;15.20;99.90;;;;;;5020729;28;20183;-81
2021/07/15 08:25:53;;;;;;;0.97;0.70;;;15.20;99.90;;;;;;5020184;28;20692;-81
2021/07/15 08:28:19;;;;;;;1.10;0.60;;;15.20;99.90;;;;;;5020914;28;20186;-81
2021/07/15 08:30:45;;;;;;;1.10;0.70;;;15.30;99.90;;;;;;5051857;23;20221;-83
2021/07/15 08:33:10;;;;;;;1.83;0.90;;;15.40;99.90;;;;;;5042714;28;20176;-82
2021/07/15 08:35:36;;;;;;;1.73;0.90;;;15.40;99.90;;;;;;5048427;28;20170;-82
2021/07/15 08:38:03;;;;;;;1.33;0.97;;;15.40;99.90;;;;;;5028583;28;20163;-83
2021/07/15 08:40:29;;;;;;;1.37;0.90;;;15.40;99.90;;;;;;5030268;28;20202;-83
2021/07/15 08:42:55;;;;;;;1.23;0.70;;;15.40;99.90;;;;;;5041066;28;20174;-83
2021/07/15 08:45:22;;;;;;;1.17;0.70;;;15.40;99.90;;;;;;5007233;28;20197;-83
2021/07/15 08:47:49;;;;;;;0.70;0.70;;;15.40;99.90;;;;;;5020367;28;20170;-83
2021/07/15 08:50:17;;;;;;;3.00;0.73;;;15.50;99.90;;;;;;5021592;28;20202;-83
2021/07/15 08:52:43;;;;;;;1.47;0.70;;;15.60;99.90;;;;;;5022891;28;20676;-83
2021/07/15 08:57:37;;;;;;;1.20;0.90;;;15.60;99.90;;;;;;5041093;28;20175;-83
2021/07/15 09:00:08;;;;;;;2.10;0.80;;;15.70;99.90;;;;;;5022443;28;20306;-83
2021/07/15 09:02:34;;;;;;;1.00;0.90;;;15.70;99.90;;;;;;5021884;28;20175;-82
2021/07/15 09:05:00;;;;;;;1.60;0.60;;;15.80;99.90;;;;;;5039292;28;20245;-83
2021/07/15 09:07:27;;;;;;;1.30;0.83;;;15.80;99.90;;;;;;5021336;28;20171;-83
2021/07/15 09:09:53;;;;;;;2.87;1.00;;;15.80;99.90;;;;;;5038827;28;20194;-83
2021/07/15 09:12:19;;;;;;;2.13;1.00;;;15.70;99.90;;;;;;5039474;28;20166;-83
2021/07/15 09:14:53;;;;;;;1.20;0.90;;;15.80;99.90;;;;;;5021186;28;20523;-83
2021/07/15 09:17:29;;;;;;;0.70;0.60;;;15.90;99.90;;;;;;5039626;28;20175;-83
2021/07/15 09:19:56;;;;;;;1.17;0.70;;;15.90;99.90;;;;;;5038674;28;20198;-83
2021/07/15 09:22:21;;;;;;;0.40;0.40;;;16.00;99.90;;;;;;5021537;28;20197;-83
2021/07/15 09:24:47;;;;;;;0.70;0.40;;;16.00;99.90;;;;;;5020755;28;20630;-83
2021/07/15 09:27:13;;;;;;;0.57;0.37;;;16.00;99.90;;;;;;5022089;28;20178;-82
2021/07/15 09:29:39;;;;;;;0.70;0.50;;;15.90;99.90;;;;;;5038185;28;20270;-81
2021/07/15 09:32:06;;;;;;;0.57;0.57;;;15.80;99.90;;;;;;5020130;28;20217;-81
2021/07/15 09:34:34;;;;;;;0.47;0.47;;;15.90;99.90;;;;;;5038242;28;20254;-80
2021/07/15 09:37:12;;;;;;;0.30;0.30;;;15.90;99.90;;;;;;5037504;28;20639;-83
2021/07/15 09:39:44;;;;;;;0.70;0.50;;;16.00;99.90;;;;;;5021196;28;20194;-83
2021/07/15 09:42:20;;;;;;;0.40;0.40;;;16.00;99.90;;;;;;5022527;28;20209;-83
2021/07/15 09:44:54;;;;;;;0.50;0.50;;;16.00;99.90;;;;;;5028308;28;20257;-83
2021/07/15 09:47:44;;;;;;;0.87;0.57;;;16.20;99.90;;;;;;5039091;28;20182;-83
2021/07/15 09:50:15;;;;;;;0.50;0.43;;;16.20;99.90;;;;;;5038396;28;20222;-83
2021/07/15 09:52:44;;;;;;;1.57;0.70;;;16.20;99.90;;;;;;5038474;28;20576;-82
2021/07/15 09:55:22;;;;;;;0.70;0.50;;;16.20;99.90;;;;;;5038626;28;20179;-83
2021/07/15 09:58:04;;;;;;;0.87;0.30;;;16.20;99.90;;;;;;5020517;28;20190;-83
2021/07/15 10:00:41;;;;;;;0.70;0.60;;;16.10;99.90;;;;;;5021491;28;20219;-83
2021/07/15 10:03:09;;;;;;;1.17;0.70;;;16.20;99.90;;;;;;5038665;28;20276;-80
2021/07/15 10:05:37;;;;;;;0.80;0.80;;;16.30;99.90;;;;;;5037849;28;20171;-79
2021/07/15 10:08:03;;;;;;;0.77;0.63;;;16.30;99.90;;;;;;5038421;28;20268;-81
2021/07/15 10:10:29;;;;;;;0.77;0.50;;;16.20;99.90;;;;;;5038728;28;20201;-80
2021/07/15 10:12:55;;;;;;;0.60;0.50;;;16.20;99.90;;;;;;5021083;28;20196;-80
2021/07/15 10:15:21;;;;;;;1.90;0.50;;;16.20;99.90;;;;;;5037485;28;20239;-79
2021/07/15 10:17:48;;;;;;;0.50;0.50;;;16.30;99.90;;;;;;5021721;28;20255;-80
2021/07/15 10:20:16;;;;;;;0.40;0.40;;;16.30;99.90;;;;;;5038303;28;20627;-80
2021/07/15 10:22:42;;;;;;;0.50;0.50;;;16.40;99.90;;;;;;5021787;28;20267;-80
2021/07/15 10:25:10;;;;;;;2.53;0.50;;;16.40;99.90;;;;;;5038147;28;20187;-81
2021/07/15 10:27:39;;;;;;;1.83;0.67;;;16.40;99.90;;;;;;5038620;28;20178;-80
2021/07/15 10:30:09;;;;;;;1.30;0.70;;;16.50;99.90;;;;;;5036482;28;20672;-81
2021/07/15 10:32:36;;;;;;;0.70;0.50;;;16.50;99.90;;;;;;5019800;28;20200;-79
2021/07/15 10:35:09;;;;;;;1.20;0.57;;;16.50;99.90;;;;;;5019881;28;20548;-80
2021/07/15 10:37:44;;;;;;;0.90;0.67;;;16.60;99.90;;;;;;5023106;28;20562;-80
2021/07/15 10:40:16;;;;;;;1.60;0.60;;;16.70;99.90;;;;;;5038988;28;20204;-82
2021/07/15 10:42:43;;;;;;;0.80;0.50;;;16.70;99.90;;;;;;5018739;28;20200;-79
2021/07/15 10:45:10;;;;;;;1.23;0.50;;;16.70;99.90;;;;;;5036710;28;20201;-80
2021/07/15 10:47:38;;;;;;;0.90;0.33;;;16.80;99.90;;;;;;5037033;28;20717;-80
2021/07/15 10:50:06;;;;;;;0.97;0.40;;;16.80;99.90;;;;;;5019281;28;20276;-80
2021/07/15 10:52:34;;;;;;;1.17;0.47;;;16.90;99.90;;;;;;5019770;28;20263;-80
2021/07/15 10:55:01;;;;;;;0.93;0.53;;;16.90;99.90;;;;;;5018066;28;20169;-79
2021/07/15 10:57:28;;;;;;;0.37;0.37;;;16.90;99.90;;;;;;5017285;28;20172;-80
2021/07/15 10:59:54;;;;;;;0.60;0.40;;;16.90;99.90;;;;;;5017198;28;20806;-81
2021/07/15 11:02:25;;;;;;;2.43;0.60;;;16.90;99.90;;;;;;5035141;28;20205;-81
2021/07/15 11:04:53;;;;;;;1.63;0.70;;;16.90;99.90;;;;;;5034849;28;20172;-81
2021/07/15 11:07:30;;;;;;;0.63;0.50;;;16.90;99.90;;;;;;5017654;28;20657;-81
2021/07/15 11:10:16;;;;;;;0.47;0.40;;;16.90;99.90;;;;;;5035395;28;20273;-81
2021/07/15 11:13:06;;;;;;;0.73;0.40;;;16.90;99.90;;;;;;5030042;28;20169;-80
2021/07/15 11:15:44;;;;;;;1.40;0.70;;;16.90;99.90;;;;;;5018020;28;20604;-81
2021/07/15 11:18:09;;;;;;;1.40;0.50;;;16.90;99.90;;;;;;5014383;28;20188;-80
2021/07/15 11:20:36;;;;;;;1.37;0.40;;;16.80;99.90;;;;;;5024649;28;20197;-80
2021/07/15 11:23:07;;;;;;;0.60;0.60;;;16.80;99.90;;;;;;5014035;28;20250;-81
2021/07/15 11:25:41;;;;;;;1.20;0.70;;;16.90;99.90;;;;;;5015346;28;20188;-81
2021/07/15 11:28:10;;;;;;;0.53;0.50;;;16.90;99.90;;;;;;5033928;28;20179;-81
2021/07/15 11:30:35;;;;;;;1.00;0.60;;;16.90;99.90;;;;;;5018541;28;20366;-80
2021/07/15 11:33:17;;;;;;;0.73;0.53;;;16.90;99.90;;;;;;5034985;28;20229;-83
2021/07/15 11:36:00;;;;;;;1.33;0.60;;;16.80;99.90;;;;;;5037010;28;20176;-81
2021/07/15 11:38:33;;;;;;;0.77;0.77;;;16.90;99.90;;;;;;5033566;28;20201;-80
2021/07/15 11:41:08;;;;;;;1.00;0.90;;;16.90;99.90;;;;;;5013586;28;20269;-81
2021/07/15 11:43:47;;;;;;;0.60;0.60;;;16.90;99.90;;;;;;5033235;28;20170;-81
2021/07/15 11:46:16;;;;;;;1.40;0.80;;;16.90;99.90;;;;;;5017398;28;20187;-81
2021/07/15 11:49:07;;;;;;;0.70;0.70;;;17.00;99.90;;;;;;5018132;28;20182;-81
2021/07/15 11:51:49;;;;;;;0.70;0.50;;;17.20;99.90;;;;;;5012392;28;20283;-78
2021/07/15 11:54:27;;;;;;;0.70;0.70;;;17.20;99.90;;;;;;5035679;28;20179;-79
2021/07/15 11:57:11;;;;;;;0.63;0.63;;;17.10;99.90;;;;;;5017896;28;20173;-79
2021/07/15 11:59:49;;;;;;;0.40;0.40;;;17.40;99.90;;;;;;5033615;28;20684;-79
2021/07/15 12:02:39;;;;;;;0.73;0.70;;;17.40;99.90;;;;;;5034098;28;20176;-79
2021/07/15 12:05:15;;;;;;;0.70;0.70;;;17.70;99.90;;;;;;5035947;28;20252;-78
2021/07/15 12:08:03;;;;;;;1.60;0.50;;;17.90;99.90;;;;;;5033311;28;20192;-81
2021/07/15 12:10:32;;;;;;;1.00;0.50;;;17.80;99.90;;;;;;5031263;28;20210;-81
2021/07/15 12:12:59;;;;;;;4.90;0.40;;;17.80;99.90;;;;;;5031337;28;20197;-83
2021/07/15 12:15:27;;;;;;;0.43;0.43;;;17.80;99.90;;;;;;5017093;28;20183;-81
2021/07/15 12:17:55;;;;;;;0.80;0.80;;;17.80;99.90;;;;;;5028030;28;20336;-82
2021/07/15 12:20:23;;;;;;;1.57;0.83;;;18.00;99.90;;;;;;5034491;28;20573;-82
2021/07/15 12:22:57;;;;;;;2.93;0.60;;;18.20;99.90;;;;;;5034645;28;20186;-83
2021/07/15 12:25:27;;;;;;;0.67;0.67;;;18.30;99.90;;;;;;5035392;28;20540;-82
2021/07/15 12:27:56;;;;;;;0.40;0.40;;;18.30;99.90;;;;;;5031962;28;20182;-82
2021/07/15 12:30:23;;;;;;;0.40;0.40;;;18.30;99.90;;;;;;5033182;28;20211;-82
2021/07/15 12:32:58;;;;;;;0.43;0.43;;;18.20;99.90;;;;;;5028523;28;20178;-83
2021/07/15 12:35:28;;;;;;;0.60;0.40;;;18.00;99.90;;;;;;5030346;28;20169;-83
2021/07/15 12:37:54;;;;;;;0.40;0.40;;;18.10;99.90;;;;;;5026961;28;20224;-83
2021/07/15 12:40:33;;;;;;;0.50;0.47;;;18.10;99.90;;;;;;5030420;28;20198;-82
2021/07/15 12:43:21;;;;;;;0.57;0.57;;;18.20;99.90;;;;;;5032250;28;21233;-83
2021/07/15 12:45:48;;;;;;;0.50;0.50;;;18.20;99.90;;;;;;5030019;28;20180;-82
2021/07/15 12:48:17;;;;;;;1.57;0.53;;;18.20;99.90;;;;;;5031298;28;20181;-82
2021/07/15 12:50:45;;;;;;;0.93;0.50;;;18.30;99.90;;;;;;5011258;28;20259;-80
2021/07/15 12:53:24;;;;;;;0.47;0.47;;;18.30;99.90;;;;;;5008656;28;20247;-79
2021/07/15 12:55:55;;;;;;;1.23;0.50;;;18.40;99.90;;;;;;5035226;28;20601;-80
2021/07/15 12:58:23;;;;;;;0.63;0.40;;;18.50;99.90;;;;;;5033496;28;20196;-80
2021/07/15 13:00:49;;;;;;;3.17;0.60;;;18.40;99.90;;;;;;5013341;28;20198;-80